createdAt,value
2022-11-01T00:00:12.289Z,3.12
2022-11-01T00:02:44.216Z,2.92
2022-11-01T00:05:14.358Z,3.20
2022-11-01T00:07:45.103Z,2.87
2022-11-01T00:12:46.919Z,2.65
2022-11-01T00:15:16.698Z,2.60
2022-11-01T00:17:46.874Z,2.67
2022-11-01T00:20:16.701Z,3.10
2022-11-01T00:22:45.564Z,2.62
2022-11-01T00:25:15.064Z,2.70
2022-11-01T00:27:46.570Z,2.65
2022-11-01T00:30:16.673Z,2.67
2022-11-01T00:32:47.947Z,2.50
2022-11-01T00:35:17.829Z,2.47
2022-11-01T00:37:47.740Z,2.58
2022-11-01T00:40:17.452Z,2.62
2022-11-01T00:42:46.830Z,2.47
2022-11-01T00:45:16.232Z,2.50
2022-11-01T00:47:47.717Z,2.20
2022-11-01T00:50:17.136Z,2.70
2022-11-01T00:52:46.565Z,2.37
2022-11-01T00:55:16.673Z,2.27
2022-11-01T00:57:46.203Z,2.30
2022-11-01T01:00:16.235Z,2.27
2022-11-01T01:02:45.121Z,2.20
2022-11-01T01:05:14.455Z,2.45
2022-11-01T01:07:44.785Z,2.20
2022-11-01T01:10:14.725Z,2.85
2022-11-01T01:12:46.125Z,2.05
2022-11-01T01:15:15.527Z,2.30
2022-11-01T01:17:44.322Z,2.37
2022-11-01T01:20:14.575Z,2.15
2022-11-01T01:22:44.232Z,2.42
2022-11-01T01:25:15.298Z,1.98
2022-11-01T01:27:44.583Z,2.10
2022-11-01T01:30:15.373Z,2.02
2022-11-01T01:32:46.504Z,2.40
2022-11-01T01:35:16.757Z,1.95
2022-11-01T01:37:48.097Z,2.10
2022-11-01T01:40:17.826Z,2.27
2022-11-01T01:42:48.418Z,2.52
2022-11-01T01:45:37.344Z,2.20
2022-11-01T01:48:13.363Z,2.33
2022-11-01T01:50:58.996Z,1.92
2022-11-01T01:53:38.260Z,1.80
2022-11-01T01:56:14.003Z,2.05
2022-11-01T02:01:20.196Z,3.42
2022-11-01T02:03:51.184Z,3.15
2022-11-01T02:08:57.959Z,3.17
2022-11-01T02:11:27.219Z,2.62
2022-11-01T02:13:57.961Z,2.17
2022-11-01T02:16:54.724Z,2.77
2022-11-01T02:20:15.323Z,2.10
2022-11-01T02:23:08.643Z,2.17
2022-11-01T02:25:51.522Z,2.55
2022-11-01T02:28:49.140Z,2.77
2022-11-01T02:31:36.115Z,2.40
2022-11-01T02:34:19.744Z,3.22
2022-11-01T02:36:55.229Z,3.02
2022-11-01T02:39:30.544Z,4.13
2022-11-01T02:42:17.087Z,3.00
2022-11-01T02:44:55.420Z,2.50
2022-11-01T02:47:25.855Z,2.52
2022-11-01T02:49:56.249Z,2.80
2022-11-01T02:52:26.172Z,2.62
2022-11-01T02:55:00.864Z,3.30
2022-11-01T02:57:40.624Z,2.83
2022-11-01T03:00:24.915Z,2.50
2022-11-01T03:03:07.677Z,2.90
2022-11-01T03:06:05.586Z,2.95
2022-11-01T03:08:48.293Z,2.77
2022-11-01T03:11:23.963Z,3.33
2022-11-01T03:14:22.195Z,3.85
2022-11-01T03:17:02.461Z,2.85
2022-11-01T03:19:52.818Z,2.45
2022-11-01T03:22:56.588Z,2.47
2022-11-01T03:25:40.416Z,2.05
2022-11-01T03:28:27.487Z,2.62
2022-11-01T03:31:10.555Z,2.60
2022-11-01T03:33:51.609Z,2.10
2022-11-01T03:36:24.191Z,2.27
2022-11-01T03:38:58.329Z,2.50
2022-11-01T03:41:29.281Z,2.52
2022-11-01T03:43:59.607Z,3.00
2022-11-01T03:46:30.090Z,3.20
2022-11-01T03:48:59.848Z,3.37
2022-11-01T03:51:29.474Z,3.17
2022-11-01T03:53:59.629Z,3.25
2022-11-01T03:56:28.850Z,4.35
2022-11-01T03:58:59.230Z,3.50
2022-11-01T04:01:28.128Z,3.20
2022-11-01T04:03:57.846Z,3.85
2022-11-01T04:06:27.848Z,4.03
2022-11-01T04:08:57.807Z,3.58
2022-11-01T04:11:28.392Z,6.05
2022-11-01T04:13:59.408Z,4.05
2022-11-01T04:16:46.540Z,3.42
2022-11-01T04:19:34.567Z,3.83
2022-11-01T04:22:04.150Z,4.12
2022-11-01T04:24:34.705Z,4.15
2022-11-01T04:27:04.476Z,4.25
2022-11-01T04:29:33.446Z,3.80
2022-11-01T04:32:03.183Z,5.12
2022-11-01T04:34:42.905Z,5.28
2022-11-01T04:37:12.381Z,5.58
2022-11-01T04:39:42.328Z,4.58
2022-11-01T04:42:12.641Z,4.53
2022-11-01T04:44:42.795Z,4.87
2022-11-01T04:47:12.292Z,4.28
2022-11-01T04:49:41.671Z,4.45
2022-11-01T04:52:12.840Z,4.70
2022-11-01T04:54:43.078Z,4.70
2022-11-01T04:57:14.533Z,4.62
2022-11-01T04:59:44.967Z,4.25
2022-11-01T05:02:16.117Z,3.95
2022-11-01T05:04:46.911Z,4.40
2022-11-01T05:07:16.462Z,4.60
2022-11-01T05:09:46.056Z,4.72
2022-11-01T05:12:15.839Z,4.70
2022-11-01T05:14:44.474Z,5.22
2022-11-01T05:17:13.625Z,5.40
2022-11-01T05:19:43.053Z,4.62
2022-11-01T05:22:13.592Z,5.90
2022-11-01T05:27:12.608Z,5.85
2022-11-01T05:29:43.843Z,5.37
2022-11-01T05:32:12.707Z,5.55
2022-11-01T05:34:43.745Z,5.60
2022-11-01T05:37:12.972Z,5.60
2022-11-01T05:39:42.409Z,5.60
2022-11-01T05:42:13.638Z,5.50
2022-11-01T05:44:43.602Z,5.53
2022-11-01T05:47:17.113Z,5.60
2022-11-01T05:49:44.567Z,5.65
2022-11-01T05:52:13.676Z,6.15
2022-11-01T05:54:43.754Z,6.10
2022-11-01T05:57:13.074Z,6.50
2022-11-01T05:59:43.849Z,7.40
2022-11-01T06:02:13.865Z,6.33
2022-11-01T06:04:43.103Z,6.78
2022-11-01T06:07:12.723Z,7.92
2022-11-01T06:09:43.562Z,6.67
2022-11-01T06:12:14.609Z,7.00
2022-11-01T06:14:45.522Z,10.50
2022-11-01T06:17:15.490Z,10.70
2022-11-01T06:19:48.270Z,6.20
2022-11-01T06:22:18.635Z,6.15
2022-11-01T06:24:49.849Z,6.42
2022-11-01T06:27:19.724Z,8.45
2022-11-01T06:29:49.030Z,6.85
2022-11-01T06:32:18.285Z,6.17
2022-11-01T06:34:47.458Z,5.58
2022-11-01T06:37:17.035Z,5.15
2022-11-01T06:39:47.315Z,4.60
2022-11-01T06:42:16.733Z,4.55
2022-11-01T06:44:46.262Z,4.78
2022-11-01T06:47:15.848Z,4.40
2022-11-01T06:49:45.966Z,4.12
2022-11-01T06:52:15.799Z,4.37
2022-11-01T06:54:48.539Z,4.33
2022-11-01T06:57:19.876Z,4.50
2022-11-01T06:59:49.318Z,4.10
2022-11-01T07:02:19.954Z,4.47
2022-11-01T07:04:50.160Z,4.10
2022-11-01T07:07:19.521Z,3.95
2022-11-01T07:09:51.361Z,3.45
2022-11-01T07:12:22.790Z,4.10
2022-11-01T07:14:51.711Z,3.83
2022-11-01T07:17:23.822Z,4.40
2022-11-01T07:19:53.921Z,3.40
2022-11-01T07:22:23.525Z,3.52
2022-11-01T07:24:52.195Z,4.10
2022-11-01T07:27:22.125Z,3.98
2022-11-01T07:29:51.131Z,3.70
2022-11-01T07:32:19.815Z,3.80
2022-11-01T07:34:49.722Z,4.12
2022-11-01T07:37:18.757Z,4.00
2022-11-01T07:39:48.471Z,3.92
2022-11-01T07:42:17.988Z,4.12
2022-11-01T07:44:47.406Z,3.90
2022-11-01T07:47:16.952Z,3.87
2022-11-01T07:49:47.565Z,3.60
2022-11-01T07:52:18.233Z,3.65
2022-11-01T07:54:48.569Z,3.30
2022-11-01T07:57:17.948Z,4.05
2022-11-01T07:59:49.048Z,3.80
2022-11-01T08:02:18.773Z,3.40
2022-11-01T08:04:48.879Z,4.60
2022-11-01T08:07:18.586Z,4.05
2022-11-01T08:09:49.949Z,3.40
2022-11-01T08:12:20.143Z,3.60
2022-11-01T08:14:49.457Z,4.25
2022-11-01T08:17:20.186Z,3.55
2022-11-01T08:19:53.356Z,3.58
2022-11-01T08:22:24.454Z,3.20
2022-11-01T08:24:54.686Z,3.00
2022-11-01T08:27:23.767Z,2.90
2022-11-01T08:29:53.481Z,2.47
2022-11-01T08:32:24.997Z,3.40
2022-11-01T08:34:56.068Z,2.50
2022-11-01T08:37:26.583Z,2.70
2022-11-01T08:39:56.418Z,2.83
2022-11-01T08:42:26.731Z,3.27
2022-11-01T08:44:55.938Z,2.85
2022-11-01T08:47:28.459Z,4.45
2022-11-01T08:49:59.176Z,2.80
2022-11-01T08:52:28.658Z,2.08
2022-11-01T08:54:58.597Z,2.05
2022-11-01T08:57:28.887Z,1.98
2022-11-01T08:59:59.412Z,2.77
2022-11-01T09:02:29.365Z,2.22
2022-11-01T09:05:00.528Z,2.62
2022-11-01T09:07:29.767Z,2.10
2022-11-01T09:09:59.784Z,2.00
2022-11-01T09:12:30.401Z,1.90
2022-11-01T09:15:01.909Z,2.08
2022-11-01T09:17:31.620Z,1.70
2022-11-01T09:20:00.979Z,1.60
2022-11-01T09:22:30.479Z,2.60
2022-11-01T09:25:01.235Z,2.17
2022-11-01T09:27:31.158Z,4.12
2022-11-01T09:30:01.902Z,2.22
2022-11-01T09:32:31.173Z,2.52
2022-11-01T09:35:01.422Z,2.22
2022-11-01T09:37:32.464Z,2.30
2022-11-01T09:40:03.294Z,1.82
2022-11-01T09:42:35.634Z,2.60
2022-11-01T09:45:09.883Z,2.30
2022-11-01T09:47:39.495Z,2.20
2022-11-01T09:50:22.366Z,1.95
2022-11-01T09:52:52.103Z,1.82
2022-11-01T09:55:54.538Z,2.22
2022-11-01T09:58:30.004Z,2.08
2022-11-01T10:01:19.469Z,2.77
2022-11-01T10:04:25.435Z,2.35
2022-11-01T10:07:14.562Z,2.00
2022-11-01T10:10:06.720Z,2.55
2022-11-01T10:12:58.260Z,2.60
2022-11-01T10:15:55.255Z,2.65
2022-11-01T10:18:32.543Z,2.95
2022-11-01T10:23:51.583Z,2.87
2022-11-01T10:26:29.694Z,2.87
2022-11-01T10:29:16.137Z,2.75
2022-11-01T10:31:47.352Z,2.33
2022-11-01T10:34:36.135Z,2.20
2022-11-01T10:37:27.718Z,2.10
2022-11-01T10:40:09.675Z,2.47
2022-11-01T10:42:38.663Z,2.40
2022-11-01T10:45:11.973Z,2.70
2022-11-01T10:47:43.591Z,3.05
2022-11-01T10:50:18.840Z,2.80
2022-11-01T10:52:54.338Z,2.72
2022-11-01T10:55:32.852Z,2.87
2022-11-01T10:58:10.084Z,2.70
2022-11-01T11:00:39.290Z,2.70
2022-11-01T11:03:28.501Z,3.50
2022-11-01T11:06:01.807Z,3.10
2022-11-01T11:08:32.005Z,3.25
2022-11-01T11:11:07.786Z,3.27
2022-11-01T11:13:47.200Z,3.10
2022-11-01T11:16:28.263Z,3.52
2022-11-01T11:19:26.071Z,3.42
2022-11-01T11:22:10.144Z,3.77
2022-11-01T11:25:01.354Z,3.05
2022-11-01T11:27:40.732Z,3.00
2022-11-01T11:30:15.466Z,2.65
2022-11-01T11:32:56.720Z,2.83
2022-11-01T11:35:34.702Z,3.12
2022-11-01T11:38:13.406Z,3.40
2022-11-01T11:40:45.567Z,2.92
2022-11-01T11:43:35.912Z,3.60
2022-11-01T11:46:21.077Z,3.62
2022-11-01T11:49:02.383Z,3.02
2022-11-01T11:51:37.456Z,2.80
2022-11-01T11:54:28.588Z,2.65
2022-11-01T11:57:11.775Z,2.75
2022-11-01T11:59:42.978Z,2.80
2022-11-01T12:02:37.572Z,3.12
2022-11-01T12:05:11.684Z,2.37
2022-11-01T12:07:55.731Z,2.67
2022-11-01T12:10:39.967Z,2.35
2022-11-01T12:13:32.915Z,2.37
2022-11-01T12:16:20.292Z,2.75
2022-11-01T12:19:02.763Z,2.47
2022-11-01T12:21:39.766Z,2.47
2022-11-01T12:24:40.144Z,2.30
2022-11-01T12:27:17.526Z,2.62
2022-11-01T12:30:08.294Z,2.33
2022-11-01T12:32:57.416Z,2.52
2022-11-01T12:35:38.157Z,2.30
2022-11-01T12:38:50.288Z,3.02
2022-11-01T12:41:34.064Z,2.85
2022-11-01T12:44:23.514Z,3.10
2022-11-01T12:47:02.207Z,2.90
2022-11-01T12:49:53.858Z,3.02
2022-11-01T12:52:47.084Z,3.02
2022-11-01T12:55:27.112Z,2.70
2022-11-01T12:57:57.755Z,3.45
2022-11-01T13:00:41.695Z,4.45
2022-11-01T13:03:45.577Z,4.70
2022-11-01T13:06:43.565Z,3.67
2022-11-01T13:09:46.842Z,3.30
2022-11-01T13:12:37.332Z,3.42
2022-11-01T13:15:25.604Z,2.98
2022-11-01T13:18:08.616Z,3.33
2022-11-01T13:21:02.071Z,3.25
2022-11-01T13:23:39.982Z,3.70
2022-11-01T13:26:17.351Z,3.50
2022-11-01T13:29:17.324Z,2.52
2022-11-01T13:32:31.534Z,3.83
2022-11-01T13:35:14.954Z,3.40
2022-11-01T13:38:04.848Z,4.08
2022-11-01T13:40:59.617Z,3.80
2022-11-01T13:43:35.075Z,4.30
2022-11-01T13:46:19.995Z,4.45
2022-11-01T13:49:22.923Z,4.45
2022-11-01T13:52:01.353Z,4.80
2022-11-01T13:54:53.594Z,4.47
2022-11-01T13:57:26.097Z,4.08
2022-11-01T13:59:59.168Z,4.28
2022-11-01T14:02:49.945Z,5.12
2022-11-01T14:05:19.920Z,5.12
2022-11-01T14:08:06.585Z,4.37
2022-11-01T14:10:48.188Z,3.90
2022-11-01T14:13:21.441Z,4.53
2022-11-01T14:16:00.345Z,4.95
2022-11-01T14:18:29.873Z,4.80
2022-11-01T14:24:22.074Z,5.75
2022-11-01T14:27:11.267Z,6.00
2022-11-01T14:29:53.035Z,7.50
2022-11-01T14:32:27.795Z,8.15
2022-11-01T14:35:21.643Z,8.05
2022-11-01T14:37:57.263Z,7.90
2022-11-01T14:40:34.491Z,7.22
2022-11-01T14:46:02.895Z,7.20
2022-11-01T14:49:27.957Z,6.90
2022-11-01T14:52:18.082Z,7.95
2022-11-01T14:55:04.705Z,7.60
2022-11-01T14:57:35.411Z,7.50
2022-11-01T15:00:38.506Z,6.90
2022-11-01T15:03:34.728Z,7.47
2022-11-01T15:06:26.379Z,6.78
2022-11-01T15:09:03.474Z,6.92
2022-11-01T15:11:34.305Z,7.12
2022-11-01T15:14:06.824Z,6.05
2022-11-01T15:16:37.378Z,7.53
2022-11-01T15:19:17.159Z,7.87
2022-11-01T15:21:55.164Z,7.33
2022-11-01T15:24:26.525Z,9.23
2022-11-01T15:26:55.289Z,9.35
2022-11-01T15:29:29.126Z,9.48
2022-11-01T15:32:00.395Z,9.00
2022-11-01T15:34:32.105Z,9.33
2022-11-01T15:37:25.947Z,8.90
2022-11-01T15:39:55.615Z,7.50
2022-11-01T15:42:27.991Z,7.80
2022-11-01T15:44:57.541Z,8.03
2022-11-01T15:47:27.810Z,8.65
2022-11-01T15:50:05.028Z,8.85
2022-11-01T15:52:38.800Z,8.88
2022-11-01T15:55:17.153Z,9.18
2022-11-01T16:00:20.141Z,10.55
2022-11-01T16:03:04.997Z,17.65
2022-11-01T16:05:45.764Z,26.62
2022-11-01T16:08:22.813Z,24.72
2022-11-01T16:10:51.708Z,44.23
2022-11-01T16:13:24.817Z,56.85
2022-11-01T16:16:07.753Z,28.52
2022-11-01T16:18:40.924Z,56.75
2022-11-01T16:21:30.324Z,49.08
2022-11-01T16:24:13.965Z,31.17
2022-11-01T16:27:02.146Z,22.22
2022-11-01T16:29:50.270Z,20.57
2022-11-01T16:32:24.408Z,15.65
2022-11-01T16:34:55.095Z,13.90
2022-11-01T16:37:30.866Z,20.37
2022-11-01T16:40:12.266Z,23.38
2022-11-01T16:42:41.974Z,31.52
2022-11-01T16:45:12.409Z,31.52
2022-11-01T16:47:42.200Z,42.55
2022-11-01T16:50:18.750Z,46.55
2022-11-01T16:52:48.755Z,43.75
2022-11-01T16:55:18.902Z,42.85
2022-11-01T16:57:48.904Z,36.85
2022-11-01T17:00:18.468Z,32.78
2022-11-01T17:02:49.210Z,27.67
2022-11-01T17:05:21.180Z,22.90
2022-11-01T17:07:50.529Z,21.95
2022-11-01T17:10:26.237Z,22.90
2022-11-01T17:12:57.486Z,21.82
2022-11-01T17:15:28.612Z,23.15
2022-11-01T17:17:58.843Z,27.07
2022-11-01T17:20:28.139Z,22.67
2022-11-01T17:22:57.780Z,21.57
2022-11-01T17:25:29.509Z,23.42
2022-11-01T17:27:58.633Z,19.12
2022-11-01T17:30:27.889Z,17.50
2022-11-01T17:32:57.325Z,21.60
2022-11-01T17:35:27.927Z,23.10
2022-11-01T17:37:57.478Z,22.25
2022-11-01T17:40:26.661Z,18.60
2022-11-01T17:42:57.738Z,16.10
2022-11-01T17:45:27.201Z,15.70
2022-11-01T17:47:57.769Z,16.15
2022-11-01T17:50:27.917Z,17.17
2022-11-01T17:52:57.554Z,16.85
2022-11-01T17:55:26.286Z,14.50
2022-11-01T17:57:55.641Z,15.43
2022-11-01T18:00:24.634Z,15.40
2022-11-01T18:02:56.913Z,15.32
2022-11-01T18:05:25.781Z,16.32
2022-11-01T18:07:57.092Z,16.82
2022-11-01T18:10:39.249Z,17.17
2022-11-01T18:13:36.221Z,18.48
2022-11-01T18:16:20.456Z,18.15
2022-11-01T18:19:16.454Z,17.82
2022-11-01T18:22:10.803Z,19.12
2022-11-01T18:24:53.295Z,19.20
2022-11-01T18:27:37.500Z,20.23
2022-11-01T18:30:14.660Z,21.45
2022-11-01T18:33:00.859Z,22.35
2022-11-01T18:35:51.225Z,24.02
2022-11-01T18:38:57.542Z,23.60
2022-11-01T18:41:26.774Z,23.55
2022-11-01T18:43:55.552Z,25.77
2022-11-01T18:46:27.331Z,32.17
2022-11-01T18:49:00.937Z,31.73
2022-11-01T18:51:33.359Z,28.10
2022-11-01T18:54:19.883Z,25.60
2022-11-01T18:56:54.990Z,26.45
2022-11-01T18:59:32.607Z,26.35
2022-11-01T19:02:18.760Z,27.32
2022-11-01T19:04:50.436Z,27.07
2022-11-01T19:07:23.374Z,26.23
2022-11-01T19:10:02.508Z,27.48
2022-11-01T19:12:41.050Z,28.20
2022-11-01T19:15:24.472Z,29.00
2022-11-01T19:18:02.694Z,30.90
2022-11-01T19:20:46.662Z,29.98
2022-11-01T19:23:21.082Z,29.92
2022-11-01T19:25:51.017Z,30.35
2022-11-01T19:28:28.924Z,31.23
2022-11-01T19:31:01.643Z,31.20
2022-11-01T19:33:36.990Z,31.20
2022-11-01T19:36:19.324Z,29.75
2022-11-01T19:38:48.324Z,29.77
2022-11-01T19:41:33.527Z,29.80
2022-11-01T19:44:12.373Z,30.35
2022-11-01T19:46:44.110Z,27.62
2022-11-01T19:49:26.283Z,28.95
2022-11-01T19:52:13.008Z,31.37
2022-11-01T19:54:45.171Z,27.80
2022-11-01T19:57:31.626Z,27.22
2022-11-01T20:00:21.938Z,26.85
2022-11-01T20:02:53.407Z,25.43
2022-11-01T20:05:34.251Z,24.40
2022-11-01T20:08:18.319Z,25.92
2022-11-01T20:10:50.040Z,24.72
2022-11-01T20:13:19.142Z,24.77
2022-11-01T20:15:49.677Z,25.60
2022-11-01T20:18:20.344Z,26.95
2022-11-01T20:20:49.117Z,27.50
2022-11-01T20:23:26.907Z,26.93
2022-11-01T20:25:50.069Z,24.65
2022-11-01T20:28:18.945Z,25.75
2022-11-01T20:30:48.881Z,23.30
2022-11-01T20:33:17.840Z,23.65
2022-11-01T20:35:48.037Z,23.90
2022-11-01T20:38:16.897Z,29.00
2022-11-01T20:40:46.570Z,26.93
2022-11-01T20:43:17.063Z,24.12
2022-11-01T20:45:46.398Z,21.50
2022-11-01T20:48:15.663Z,18.67
2022-11-01T20:50:44.933Z,21.90
2022-11-01T20:53:14.808Z,20.05
2022-11-01T20:55:45.054Z,18.48
2022-11-01T20:58:14.516Z,17.10
2022-11-01T21:00:43.305Z,17.02
2022-11-01T21:03:15.875Z,15.65
2022-11-01T21:05:47.043Z,16.70
2022-11-01T21:08:26.671Z,17.00
2022-11-01T21:11:02.173Z,16.67
2022-11-01T21:13:37.848Z,15.35
2022-11-01T21:16:15.418Z,16.07
2022-11-01T21:18:46.326Z,18.92
2022-11-01T21:21:26.495Z,17.02
2022-11-01T21:23:57.174Z,16.32
2022-11-01T21:26:31.438Z,21.07
2022-11-01T21:29:09.910Z,24.05
2022-11-01T21:31:38.786Z,25.68
2022-11-01T21:34:16.165Z,27.80
2022-11-01T21:36:49.185Z,25.92
2022-11-01T21:39:27.714Z,23.75
2022-11-01T21:42:01.258Z,18.98
2022-11-01T21:44:40.078Z,16.75
2022-11-01T21:47:21.569Z,22.30
2022-11-01T21:49:51.028Z,22.07
2022-11-01T21:52:21.027Z,20.95
2022-11-01T21:54:51.129Z,20.70
2022-11-01T21:57:20.443Z,21.40
2022-11-01T21:59:49.317Z,25.55
2022-11-01T22:02:19.482Z,23.25
2022-11-01T22:04:48.723Z,18.65
2022-11-01T22:07:18.027Z,17.42
2022-11-01T22:09:49.000Z,16.48
2022-11-01T22:12:18.298Z,18.32
2022-11-01T22:14:47.544Z,18.90
2022-11-01T22:17:18.179Z,19.27
2022-11-01T22:19:47.690Z,18.87
2022-11-01T22:22:18.067Z,19.35
2022-11-01T22:24:47.213Z,20.35
2022-11-01T22:27:17.111Z,20.32
2022-11-01T22:29:46.638Z,20.02
2022-11-01T22:32:17.313Z,19.42
2022-11-01T22:34:46.478Z,20.02
2022-11-01T22:37:16.111Z,20.02
2022-11-01T22:39:47.002Z,19.12
2022-11-01T22:42:17.441Z,19.55
2022-11-01T22:44:47.772Z,19.35
2022-11-01T22:47:26.804Z,20.00
2022-11-01T22:49:58.891Z,20.62
2022-11-01T22:52:43.098Z,19.90
2022-11-01T22:55:17.730Z,19.50
2022-11-01T22:57:55.333Z,20.08
2022-11-01T23:00:36.483Z,19.82
2022-11-01T23:03:31.295Z,20.35
2022-11-01T23:06:02.113Z,18.52
2022-11-01T23:08:35.255Z,19.10
2022-11-01T23:11:06.709Z,17.73
2022-11-01T23:13:56.259Z,18.37
2022-11-01T23:16:29.168Z,18.65
2022-11-01T23:19:12.520Z,19.92
2022-11-01T23:21:41.695Z,20.23
2022-11-01T23:24:11.377Z,18.73
2022-11-01T23:26:40.174Z,19.40
2022-11-01T23:29:09.220Z,19.73
2022-11-01T23:31:38.006Z,19.70
2022-11-01T23:34:10.513Z,18.32
2022-11-01T23:36:39.774Z,19.27
2022-11-01T23:39:11.452Z,18.70
2022-11-01T23:41:42.840Z,17.73
2022-11-01T23:44:35.607Z,17.12
2022-11-01T23:47:37.189Z,18.55
2022-11-01T23:50:30.208Z,18.75
2022-11-01T23:53:10.988Z,17.75
2022-11-01T23:55:44.372Z,18.40
2022-11-01T23:58:21.002Z,17.87
